Lisbon, Portugal
Current Conditions -  °F | °C
As of 2:30 PM on Friday 24 Oct 2014 (Local Time) from LPPT Reporting Station
Clear Clear  
Wind Chill: 26°   Ceiling: Unl
Heat Index: 26°   Visibility: 6mi
Dew Point: 13°   Wind: 8mph
Humidity: 44%   Direction: 70°ENE
Pressure: 30"   Gusts: 20mph
Location:  38.72°N, 9.14°W
Report Text: LPPT 241330Z 07007G17KT 030V100 CAVOK 26/13 Q1016
Loading
Personal Weather Stations






























Interactive Weather Map New forecast layout! Learn more

10-Day Weather Forecast

Advertisements
Track Severe Weather on mobile